<?xml version="1.0" encoding="UTF-8" standalone="no" ?>
<gpx xmlns="http://www.topografix.com/GPX/1/1" xmlns:xsi="http://www.w3.org/2001/XMLSchema-instance" xsi:schemaLocation="http://www.topografix.com/GPX/1/1 http://www.topografix.com/GPX/1/1/gpx.xsd" version="1.1" creator="VisuGPX - https://www.visugpx.com">
  <metadata>
    <name>Course à pied le midi</name>
  </metadata>
  <trk>
    <name><![CDATA[Course à pied le midi_1]]></name>
    <trkseg>
      <trkpt lat="48.70686" lon="7.1638">
        <ele>344.3</ele>
        <time>2024-01-23T10:55:54Z</time>
      </trkpt>
      <trkpt lat="48.70686" lon="7.1638">
        <ele>344.3</ele>
        <time>2024-01-23T10:56:03Z</time>
      </trkpt>
      <trkpt lat="48.70686" lon="7.1638">
        <ele>344.3</ele>
        <time>2024-01-23T10:56:10Z</time>
      </trkpt>
      <trkpt lat="48.70686" lon="7.1638">
        <ele>344.3</ele>
        <time>2024-01-23T10:56:16Z</time>
      </trkpt>
      <trkpt lat="48.70686" lon="7.1638">
        <ele>344.3</ele>
        <time>2024-01-23T10:56:22Z</time>
      </trkpt>
      <trkpt lat="48.70686" lon="7.1638">
        <ele>344.3</ele>
        <time>2024-01-23T10:56:29Z</time>
      </trkpt>
      <trkpt lat="48.70686" lon="7.1638">
        <ele>344.3</ele>
        <time>2024-01-23T10:56:36Z</time>
      </trkpt>
      <trkpt lat="48.70686" lon="7.1638">
        <ele>344.3</ele>
        <time>2024-01-23T10:56:43Z</time>
      </trkpt>
      <trkpt lat="48.70686" lon="7.1638">
        <ele>344.3</ele>
        <time>2024-01-23T10:56:50Z</time>
      </trkpt>
      <trkpt lat="48.70686" lon="7.1638">
        <ele>344.3</ele>
        <time>2024-01-23T10:56:56Z</time>
      </trkpt>
      <trkpt lat="48.70686" lon="7.1638">
        <ele>344.3</ele>
        <time>2024-01-23T10:57:02Z</time>
      </trkpt>
      <trkpt lat="48.70686" lon="7.1638">
        <ele>344.3</ele>
        <time>2024-01-23T10:57:08Z</time>
      </trkpt>
      <trkpt lat="48.70686" lon="7.1638">
        <ele>344.3</ele>
        <time>2024-01-23T10:57:14Z</time>
      </trkpt>
      <trkpt lat="48.70686" lon="7.1638">
        <ele>344.3</ele>
        <time>2024-01-23T10:57:21Z</time>
      </trkpt>
      <trkpt lat="48.70686" lon="7.1638">
        <ele>344.3</ele>
        <time>2024-01-23T10:57:28Z</time>
      </trkpt>
      <trkpt lat="48.70686" lon="7.1638">
        <ele>344.3</ele>
        <time>2024-01-23T10:57:35Z</time>
      </trkpt>
      <trkpt lat="48.70686" lon="7.1638">
        <ele>344.3</ele>
        <time>2024-01-23T10:57:42Z</time>
      </trkpt>
      <trkpt lat="48.70686" lon="7.1638">
        <ele>344.3</ele>
        <time>2024-01-23T10:57:49Z</time>
      </trkpt>
      <trkpt lat="48.70686" lon="7.1638">
        <ele>344.3</ele>
        <time>2024-01-23T10:57:56Z</time>
      </trkpt>
      <trkpt lat="48.70686" lon="7.1638">
        <ele>344.3</ele>
        <time>2024-01-23T10:58:03Z</time>
      </trkpt>
      <trkpt lat="48.70686" lon="7.1638">
        <ele>344.3</ele>
        <time>2024-01-23T10:58:10Z</time>
      </trkpt>
      <trkpt lat="48.70686" lon="7.1638">
        <ele>344.3</ele>
        <time>2024-01-23T10:58:17Z</time>
      </trkpt>
      <trkpt lat="48.70686" lon="7.1638">
        <ele>344.3</ele>
        <time>2024-01-23T10:58:24Z</time>
      </trkpt>
      <trkpt lat="48.70686" lon="7.1638">
        <ele>344.3</ele>
        <time>2024-01-23T10:58:31Z</time>
      </trkpt>
      <trkpt lat="48.70686" lon="7.1638">
        <ele>344.3</ele>
        <time>2024-01-23T10:58:38Z</time>
      </trkpt>
      <trkpt lat="48.70686" lon="7.1638">
        <ele>344.3</ele>
        <time>2024-01-23T10:58:45Z</time>
      </trkpt>
      <trkpt lat="48.70686" lon="7.1638">
        <ele>344.3</ele>
        <time>2024-01-23T10:58:52Z</time>
      </trkpt>
      <trkpt lat="48.70686" lon="7.1638">
        <ele>344.3</ele>
        <time>2024-01-23T10:58:59Z</time>
      </trkpt>
      <trkpt lat="48.70686" lon="7.1638">
        <ele>344.3</ele>
        <time>2024-01-23T10:59:06Z</time>
      </trkpt>
      <trkpt lat="48.70673" lon="7.16401">
        <ele>345.7</ele>
        <time>2024-01-23T10:59:13Z</time>
      </trkpt>
      <trkpt lat="48.70662" lon="7.16425">
        <ele>346.9</ele>
        <time>2024-01-23T10:59:19Z</time>
      </trkpt>
      <trkpt lat="48.70651" lon="7.16448">
        <ele>347.6</ele>
        <time>2024-01-23T10:59:25Z</time>
      </trkpt>
      <trkpt lat="48.70638" lon="7.16473">
        <ele>348.6</ele>
        <time>2024-01-23T10:59:31Z</time>
      </trkpt>
      <trkpt lat="48.70626" lon="7.16494">
        <ele>349.6</ele>
        <time>2024-01-23T10:59:37Z</time>
      </trkpt>
      <trkpt lat="48.70614" lon="7.16516">
        <ele>350.7</ele>
        <time>2024-01-23T10:59:44Z</time>
      </trkpt>
      <trkpt lat="48.70602" lon="7.16538">
        <ele>351.6</ele>
        <time>2024-01-23T10:59:51Z</time>
      </trkpt>
      <trkpt lat="48.70588" lon="7.16561">
        <ele>352.6</ele>
        <time>2024-01-23T10:59:58Z</time>
      </trkpt>
      <trkpt lat="48.70574" lon="7.16583">
        <ele>353.6</ele>
        <time>2024-01-23T11:00:04Z</time>
      </trkpt>
      <trkpt lat="48.7056" lon="7.16604">
        <ele>354.6</ele>
        <time>2024-01-23T11:00:11Z</time>
      </trkpt>
      <trkpt lat="48.70546" lon="7.16624">
        <ele>355.3</ele>
        <time>2024-01-23T11:00:17Z</time>
      </trkpt>
      <trkpt lat="48.70534" lon="7.16646">
        <ele>356.1</ele>
        <time>2024-01-23T11:00:23Z</time>
      </trkpt>
      <trkpt lat="48.70522" lon="7.16667">
        <ele>356.6</ele>
        <time>2024-01-23T11:00:29Z</time>
      </trkpt>
      <trkpt lat="48.70509" lon="7.1669">
        <ele>356.6</ele>
        <time>2024-01-23T11:00:37Z</time>
      </trkpt>
      <trkpt lat="48.70497" lon="7.16712">
        <ele>356.2</ele>
        <time>2024-01-23T11:00:43Z</time>
      </trkpt>
      <trkpt lat="48.70484" lon="7.16739">
        <ele>355.5</ele>
        <time>2024-01-23T11:00:50Z</time>
      </trkpt>
      <trkpt lat="48.70471" lon="7.16762">
        <ele>354.6</ele>
        <time>2024-01-23T11:00:55Z</time>
      </trkpt>
      <trkpt lat="48.70454" lon="7.1678">
        <ele>353.8</ele>
        <time>2024-01-23T11:01:03Z</time>
      </trkpt>
      <trkpt lat="48.7044" lon="7.16803">
        <ele>353.4</ele>
        <time>2024-01-23T11:01:09Z</time>
      </trkpt>
      <trkpt lat="48.70427" lon="7.16826">
        <ele>353.3</ele>
        <time>2024-01-23T11:01:13Z</time>
      </trkpt>
      <trkpt lat="48.70415" lon="7.16847">
        <ele>353.5</ele>
        <time>2024-01-23T11:01:17Z</time>
      </trkpt>
      <trkpt lat="48.70402" lon="7.16867">
        <ele>353.7</ele>
        <time>2024-01-23T11:01:22Z</time>
      </trkpt>
      <trkpt lat="48.70386" lon="7.1689">
        <ele>354.2</ele>
        <time>2024-01-23T11:01:27Z</time>
      </trkpt>
      <trkpt lat="48.70368" lon="7.16905">
        <ele>355</ele>
        <time>2024-01-23T11:01:33Z</time>
      </trkpt>
      <trkpt lat="48.70349" lon="7.16914">
        <ele>356.1</ele>
        <time>2024-01-23T11:01:40Z</time>
      </trkpt>
      <trkpt lat="48.70329" lon="7.16901">
        <ele>357.8</ele>
        <time>2024-01-23T11:01:52Z</time>
      </trkpt>
      <trkpt lat="48.7031" lon="7.16909">
        <ele>359.4</ele>
        <time>2024-01-23T11:01:59Z</time>
      </trkpt>
      <trkpt lat="48.7029" lon="7.16916">
        <ele>361</ele>
        <time>2024-01-23T11:02:09Z</time>
      </trkpt>
      <trkpt lat="48.70271" lon="7.16928">
        <ele>362.3</ele>
        <time>2024-01-23T11:02:17Z</time>
      </trkpt>
      <trkpt lat="48.70256" lon="7.16943">
        <ele>363.5</ele>
        <time>2024-01-23T11:02:23Z</time>
      </trkpt>
      <trkpt lat="48.70238" lon="7.16958">
        <ele>364.5</ele>
        <time>2024-01-23T11:02:30Z</time>
      </trkpt>
      <trkpt lat="48.7022" lon="7.16973">
        <ele>365.4</ele>
        <time>2024-01-23T11:02:37Z</time>
      </trkpt>
      <trkpt lat="48.70203" lon="7.16989">
        <ele>366.4</ele>
        <time>2024-01-23T11:02:43Z</time>
      </trkpt>
      <trkpt lat="48.70185" lon="7.17002">
        <ele>367.8</ele>
        <time>2024-01-23T11:02:50Z</time>
      </trkpt>
      <trkpt lat="48.70168" lon="7.17015">
        <ele>369</ele>
        <time>2024-01-23T11:02:57Z</time>
      </trkpt>
      <trkpt lat="48.70151" lon="7.17033">
        <ele>370.7</ele>
        <time>2024-01-23T11:03:05Z</time>
      </trkpt>
      <trkpt lat="48.70137" lon="7.17058">
        <ele>372.5</ele>
        <time>2024-01-23T11:03:12Z</time>
      </trkpt>
      <trkpt lat="48.70128" lon="7.17082">
        <ele>373.6</ele>
        <time>2024-01-23T11:03:19Z</time>
      </trkpt>
      <trkpt lat="48.70112" lon="7.17096">
        <ele>375</ele>
        <time>2024-01-23T11:03:26Z</time>
      </trkpt>
      <trkpt lat="48.70095" lon="7.17109">
        <ele>376.4</ele>
        <time>2024-01-23T11:03:33Z</time>
      </trkpt>
      <trkpt lat="48.70079" lon="7.17124">
        <ele>377.8</ele>
        <time>2024-01-23T11:03:40Z</time>
      </trkpt>
      <trkpt lat="48.70063" lon="7.17141">
        <ele>379.3</ele>
        <time>2024-01-23T11:03:48Z</time>
      </trkpt>
      <trkpt lat="48.70046" lon="7.17156">
        <ele>380.9</ele>
        <time>2024-01-23T11:03:56Z</time>
      </trkpt>
      <trkpt lat="48.7003" lon="7.17174">
        <ele>382.6</ele>
        <time>2024-01-23T11:04:03Z</time>
      </trkpt>
      <trkpt lat="48.70013" lon="7.1719">
        <ele>384.2</ele>
        <time>2024-01-23T11:04:11Z</time>
      </trkpt>
      <trkpt lat="48.69997" lon="7.17208">
        <ele>385.8</ele>
        <time>2024-01-23T11:04:19Z</time>
      </trkpt>
      <trkpt lat="48.69981" lon="7.17223">
        <ele>387.2</ele>
        <time>2024-01-23T11:04:27Z</time>
      </trkpt>
      <trkpt lat="48.69968" lon="7.17243">
        <ele>388.4</ele>
        <time>2024-01-23T11:04:34Z</time>
      </trkpt>
      <trkpt lat="48.69955" lon="7.17265">
        <ele>389.6</ele>
        <time>2024-01-23T11:04:40Z</time>
      </trkpt>
      <trkpt lat="48.69942" lon="7.17285">
        <ele>390.4</ele>
        <time>2024-01-23T11:04:46Z</time>
      </trkpt>
      <trkpt lat="48.69928" lon="7.17302">
        <ele>391.3</ele>
        <time>2024-01-23T11:04:52Z</time>
      </trkpt>
      <trkpt lat="48.69915" lon="7.17326">
        <ele>392.2</ele>
        <time>2024-01-23T11:04:59Z</time>
      </trkpt>
      <trkpt lat="48.69902" lon="7.17346">
        <ele>393.1</ele>
        <time>2024-01-23T11:05:06Z</time>
      </trkpt>
      <trkpt lat="48.69889" lon="7.17366">
        <ele>394.3</ele>
        <time>2024-01-23T11:05:12Z</time>
      </trkpt>
      <trkpt lat="48.69876" lon="7.17385">
        <ele>395.3</ele>
        <time>2024-01-23T11:05:20Z</time>
      </trkpt>
      <trkpt lat="48.69869" lon="7.17411">
        <ele>395.8</ele>
        <time>2024-01-23T11:05:27Z</time>
      </trkpt>
      <trkpt lat="48.69879" lon="7.17435">
        <ele>395.5</ele>
        <time>2024-01-23T11:05:35Z</time>
      </trkpt>
      <trkpt lat="48.6989" lon="7.17456">
        <ele>395.2</ele>
        <time>2024-01-23T11:05:42Z</time>
      </trkpt>
      <trkpt lat="48.69902" lon="7.17476">
        <ele>394.9</ele>
        <time>2024-01-23T11:05:48Z</time>
      </trkpt>
      <trkpt lat="48.69914" lon="7.17504">
        <ele>394.5</ele>
        <time>2024-01-23T11:05:54Z</time>
      </trkpt>
      <trkpt lat="48.69923" lon="7.17528">
        <ele>394.2</ele>
        <time>2024-01-23T11:05:59Z</time>
      </trkpt>
      <trkpt lat="48.69931" lon="7.17554">
        <ele>393.7</ele>
        <time>2024-01-23T11:06:04Z</time>
      </trkpt>
      <trkpt lat="48.69939" lon="7.17579">
        <ele>393.2</ele>
        <time>2024-01-23T11:06:09Z</time>
      </trkpt>
      <trkpt lat="48.69946" lon="7.17604">
        <ele>392.7</ele>
        <time>2024-01-23T11:06:15Z</time>
      </trkpt>
      <trkpt lat="48.69961" lon="7.17625">
        <ele>392.1</ele>
        <time>2024-01-23T11:06:22Z</time>
      </trkpt>
      <trkpt lat="48.69968" lon="7.17656">
        <ele>391.4</ele>
        <time>2024-01-23T11:06:26Z</time>
      </trkpt>
      <trkpt lat="48.69979" lon="7.17683">
        <ele>390.6</ele>
        <time>2024-01-23T11:06:32Z</time>
      </trkpt>
      <trkpt lat="48.69987" lon="7.17708">
        <ele>389.9</ele>
        <time>2024-01-23T11:06:38Z</time>
      </trkpt>
      <trkpt lat="48.6999" lon="7.17739">
        <ele>389.3</ele>
        <time>2024-01-23T11:06:46Z</time>
      </trkpt>
      <trkpt lat="48.69989" lon="7.17766">
        <ele>388.5</ele>
        <time>2024-01-23T11:06:52Z</time>
      </trkpt>
      <trkpt lat="48.69991" lon="7.17796">
        <ele>387.5</ele>
        <time>2024-01-23T11:06:58Z</time>
      </trkpt>
      <trkpt lat="48.69999" lon="7.17824">
        <ele>387</ele>
        <time>2024-01-23T11:07:04Z</time>
      </trkpt>
      <trkpt lat="48.70008" lon="7.17852">
        <ele>386.7</ele>
        <time>2024-01-23T11:07:10Z</time>
      </trkpt>
      <trkpt lat="48.70017" lon="7.17879">
        <ele>386.4</ele>
        <time>2024-01-23T11:07:16Z</time>
      </trkpt>
      <trkpt lat="48.70028" lon="7.17902">
        <ele>386.2</ele>
        <time>2024-01-23T11:07:22Z</time>
      </trkpt>
      <trkpt lat="48.70038" lon="7.17929">
        <ele>386.1</ele>
        <time>2024-01-23T11:07:28Z</time>
      </trkpt>
      <trkpt lat="48.70046" lon="7.17956">
        <ele>386.1</ele>
        <time>2024-01-23T11:07:35Z</time>
      </trkpt>
      <trkpt lat="48.7005" lon="7.17984">
        <ele>386.1</ele>
        <time>2024-01-23T11:07:41Z</time>
      </trkpt>
      <trkpt lat="48.70043" lon="7.18004">
        <ele>385.9</ele>
        <time>2024-01-23T11:07:46Z</time>
      </trkpt>
      <trkpt lat="48.70026" lon="7.18002">
        <ele>386.2</ele>
        <time>2024-01-23T11:07:53Z</time>
      </trkpt>
      <trkpt lat="48.70007" lon="7.18002">
        <ele>386.6</ele>
        <time>2024-01-23T11:08:00Z</time>
      </trkpt>
      <trkpt lat="48.69987" lon="7.18007">
        <ele>386.6</ele>
        <time>2024-01-23T11:08:07Z</time>
      </trkpt>
      <trkpt lat="48.69969" lon="7.18017">
        <ele>385.1</ele>
        <time>2024-01-23T11:08:13Z</time>
      </trkpt>
      <trkpt lat="48.69949" lon="7.18028">
        <ele>382.5</ele>
        <time>2024-01-23T11:08:19Z</time>
      </trkpt>
      <trkpt lat="48.69932" lon="7.1804">
        <ele>379.7</ele>
        <time>2024-01-23T11:08:25Z</time>
      </trkpt>
      <trkpt lat="48.69914" lon="7.1806">
        <ele>377.9</ele>
        <time>2024-01-23T11:08:31Z</time>
      </trkpt>
      <trkpt lat="48.69895" lon="7.18064">
        <ele>376.4</ele>
        <time>2024-01-23T11:08:36Z</time>
      </trkpt>
      <trkpt lat="48.69875" lon="7.18062">
        <ele>374.2</ele>
        <time>2024-01-23T11:08:41Z</time>
      </trkpt>
      <trkpt lat="48.69854" lon="7.18054">
        <ele>371.5</ele>
        <time>2024-01-23T11:08:47Z</time>
      </trkpt>
      <trkpt lat="48.69836" lon="7.18048">
        <ele>369.3</ele>
        <time>2024-01-23T11:08:53Z</time>
      </trkpt>
      <trkpt lat="48.69827" lon="7.18023">
        <ele>368.7</ele>
        <time>2024-01-23T11:08:59Z</time>
      </trkpt>
      <trkpt lat="48.69822" lon="7.17995">
        <ele>369</ele>
        <time>2024-01-23T11:09:05Z</time>
      </trkpt>
      <trkpt lat="48.69817" lon="7.17968">
        <ele>369.5</ele>
        <time>2024-01-23T11:09:12Z</time>
      </trkpt>
      <trkpt lat="48.69817" lon="7.17966">
        <ele>369.6</ele>
        <time>2024-01-23T11:09:13Z</time>
      </trkpt>
      <trkpt lat="48.69816" lon="7.17957">
        <ele>369.7</ele>
        <time>2024-01-23T11:09:16Z</time>
      </trkpt>
      <trkpt lat="48.69814" lon="7.17951">
        <ele>369.6</ele>
        <time>2024-01-23T11:09:19Z</time>
      </trkpt>
      <trkpt lat="48.69814" lon="7.17946">
        <ele>369.7</ele>
        <time>2024-01-23T11:09:23Z</time>
      </trkpt>
      <trkpt lat="48.69814" lon="7.17941">
        <ele>369.8</ele>
        <time>2024-01-23T11:09:25Z</time>
      </trkpt>
      <trkpt lat="48.69814" lon="7.17937">
        <ele>369.8</ele>
        <time>2024-01-23T11:09:27Z</time>
      </trkpt>
      <trkpt lat="48.69814" lon="7.17921">
        <ele>370.3</ele>
        <time>2024-01-23T11:09:34Z</time>
      </trkpt>
      <trkpt lat="48.69813" lon="7.17919">
        <ele>370.3</ele>
        <time>2024-01-23T11:09:35Z</time>
      </trkpt>
      <trkpt lat="48.69813" lon="7.17915">
        <ele>370.5</ele>
        <time>2024-01-23T11:09:37Z</time>
      </trkpt>
      <trkpt lat="48.69813" lon="7.17907">
        <ele>370.8</ele>
        <time>2024-01-23T11:09:40Z</time>
      </trkpt>
      <trkpt lat="48.69813" lon="7.17899">
        <ele>371.2</ele>
        <time>2024-01-23T11:09:45Z</time>
      </trkpt>
      <trkpt lat="48.69815" lon="7.17889">
        <ele>371.5</ele>
        <time>2024-01-23T11:09:49Z</time>
      </trkpt>
      <trkpt lat="48.69816" lon="7.17883">
        <ele>371.7</ele>
        <time>2024-01-23T11:09:51Z</time>
      </trkpt>
      <trkpt lat="48.69818" lon="7.17877">
        <ele>371.9</ele>
        <time>2024-01-23T11:09:53Z</time>
      </trkpt>
      <trkpt lat="48.69819" lon="7.17872">
        <ele>372</ele>
        <time>2024-01-23T11:09:55Z</time>
      </trkpt>
      <trkpt lat="48.69821" lon="7.17866">
        <ele>372.4</ele>
        <time>2024-01-23T11:09:58Z</time>
      </trkpt>
      <trkpt lat="48.6982" lon="7.17863">
        <ele>372.4</ele>
        <time>2024-01-23T11:10:00Z</time>
      </trkpt>
      <trkpt lat="48.69821" lon="7.17859">
        <ele>372.7</ele>
        <time>2024-01-23T11:10:02Z</time>
      </trkpt>
      <trkpt lat="48.69832" lon="7.17835">
        <ele>373.4</ele>
        <time>2024-01-23T11:10:10Z</time>
      </trkpt>
      <trkpt lat="48.69835" lon="7.17822">
        <ele>374.1</ele>
        <time>2024-01-23T11:10:16Z</time>
      </trkpt>
      <trkpt lat="48.69836" lon="7.17825">
        <ele>373.8</ele>
        <time>2024-01-23T11:10:19Z</time>
      </trkpt>
      <trkpt lat="48.69838" lon="7.17838">
        <ele>373.2</ele>
        <time>2024-01-23T11:10:25Z</time>
      </trkpt>
      <trkpt lat="48.69832" lon="7.17864">
        <ele>372.3</ele>
        <time>2024-01-23T11:10:35Z</time>
      </trkpt>
      <trkpt lat="48.69833" lon="7.17892">
        <ele>372</ele>
        <time>2024-01-23T11:10:44Z</time>
      </trkpt>
      <trkpt lat="48.69833" lon="7.17897">
        <ele>372</ele>
        <time>2024-01-23T11:10:47Z</time>
      </trkpt>
      <trkpt lat="48.69832" lon="7.17898">
        <ele>371.9</ele>
        <time>2024-01-23T11:10:48Z</time>
      </trkpt>
      <trkpt lat="48.69831" lon="7.17899">
        <ele>372</ele>
        <time>2024-01-23T11:10:53Z</time>
      </trkpt>
      <trkpt lat="48.6983" lon="7.17893">
        <ele>372.1</ele>
        <time>2024-01-23T11:10:57Z</time>
      </trkpt>
      <trkpt lat="48.69831" lon="7.17887">
        <ele>372.1</ele>
        <time>2024-01-23T11:11:03Z</time>
      </trkpt>
      <trkpt lat="48.69831" lon="7.17886">
        <ele>372.2</ele>
        <time>2024-01-23T11:11:05Z</time>
      </trkpt>
      <trkpt lat="48.69827" lon="7.17881">
        <ele>372.2</ele>
        <time>2024-01-23T11:11:11Z</time>
      </trkpt>
      <trkpt lat="48.69824" lon="7.17876">
        <ele>372.3</ele>
        <time>2024-01-23T11:11:16Z</time>
      </trkpt>
      <trkpt lat="48.69822" lon="7.17871">
        <ele>372.5</ele>
        <time>2024-01-23T11:11:20Z</time>
      </trkpt>
      <trkpt lat="48.69822" lon="7.17867">
        <ele>372.6</ele>
        <time>2024-01-23T11:11:24Z</time>
      </trkpt>
      <trkpt lat="48.69822" lon="7.17862">
        <ele>372.8</ele>
        <time>2024-01-23T11:11:28Z</time>
      </trkpt>
      <trkpt lat="48.69822" lon="7.17861">
        <ele>373</ele>
        <time>2024-01-23T11:11:29Z</time>
      </trkpt>
      <trkpt lat="48.69821" lon="7.17856">
        <ele>373.5</ele>
        <time>2024-01-23T11:11:32Z</time>
      </trkpt>
      <trkpt lat="48.69821" lon="7.17854">
        <ele>373.5</ele>
        <time>2024-01-23T11:11:33Z</time>
      </trkpt>
      <trkpt lat="48.69823" lon="7.17848">
        <ele>373.8</ele>
        <time>2024-01-23T11:11:35Z</time>
      </trkpt>
      <trkpt lat="48.69835" lon="7.17825">
        <ele>374.5</ele>
        <time>2024-01-23T11:11:43Z</time>
      </trkpt>
      <trkpt lat="48.69845" lon="7.17801">
        <ele>376.3</ele>
        <time>2024-01-23T11:11:52Z</time>
      </trkpt>
      <trkpt lat="48.69848" lon="7.1781">
        <ele>375.7</ele>
        <time>2024-01-23T11:11:58Z</time>
      </trkpt>
      <trkpt lat="48.69848" lon="7.17814">
        <ele>375.5</ele>
        <time>2024-01-23T11:12:00Z</time>
      </trkpt>
      <trkpt lat="48.69846" lon="7.17823">
        <ele>374.9</ele>
        <time>2024-01-23T11:12:04Z</time>
      </trkpt>
      <trkpt lat="48.69841" lon="7.1785">
        <ele>373.3</ele>
        <time>2024-01-23T11:12:15Z</time>
      </trkpt>
      <trkpt lat="48.6984" lon="7.17877">
        <ele>372.9</ele>
        <time>2024-01-23T11:12:23Z</time>
      </trkpt>
      <trkpt lat="48.69842" lon="7.17895">
        <ele>373</ele>
        <time>2024-01-23T11:12:27Z</time>
      </trkpt>
      <trkpt lat="48.69843" lon="7.17902">
        <ele>372.9</ele>
        <time>2024-01-23T11:12:31Z</time>
      </trkpt>
      <trkpt lat="48.69843" lon="7.17902">
        <ele>372.9</ele>
        <time>2024-01-23T11:12:34Z</time>
      </trkpt>
      <trkpt lat="48.69845" lon="7.179">
        <ele>373.1</ele>
        <time>2024-01-23T11:12:36Z</time>
      </trkpt>
      <trkpt lat="48.69848" lon="7.17897">
        <ele>373.2</ele>
        <time>2024-01-23T11:12:40Z</time>
      </trkpt>
      <trkpt lat="48.6985" lon="7.17895">
        <ele>373.4</ele>
        <time>2024-01-23T11:12:43Z</time>
      </trkpt>
      <trkpt lat="48.69852" lon="7.17892">
        <ele>373.6</ele>
        <time>2024-01-23T11:12:46Z</time>
      </trkpt>
      <trkpt lat="48.69855" lon="7.17891">
        <ele>373.6</ele>
        <time>2024-01-23T11:12:49Z</time>
      </trkpt>
      <trkpt lat="48.69856" lon="7.1789">
        <ele>373.8</ele>
        <time>2024-01-23T11:12:51Z</time>
      </trkpt>
      <trkpt lat="48.69858" lon="7.17888">
        <ele>374</ele>
        <time>2024-01-23T11:12:54Z</time>
      </trkpt>
      <trkpt lat="48.69862" lon="7.17886">
        <ele>374.2</ele>
        <time>2024-01-23T11:13:00Z</time>
      </trkpt>
      <trkpt lat="48.69864" lon="7.17884">
        <ele>374.4</ele>
        <time>2024-01-23T11:13:04Z</time>
      </trkpt>
      <trkpt lat="48.69869" lon="7.17878">
        <ele>374.8</ele>
        <time>2024-01-23T11:13:09Z</time>
      </trkpt>
      <trkpt lat="48.69869" lon="7.17877">
        <ele>374.8</ele>
        <time>2024-01-23T11:13:11Z</time>
      </trkpt>
      <trkpt lat="48.69869" lon="7.17877">
        <ele>374.8</ele>
        <time>2024-01-23T11:13:12Z</time>
      </trkpt>
      <trkpt lat="48.6987" lon="7.17877">
        <ele>375.1</ele>
        <time>2024-01-23T11:13:14Z</time>
      </trkpt>
      <trkpt lat="48.69872" lon="7.17875">
        <ele>375.2</ele>
        <time>2024-01-23T11:13:16Z</time>
      </trkpt>
      <trkpt lat="48.6989" lon="7.17868">
        <ele>377.9</ele>
        <time>2024-01-23T11:13:23Z</time>
      </trkpt>
      <trkpt lat="48.69886" lon="7.17866">
        <ele>377.2</ele>
        <time>2024-01-23T11:13:37Z</time>
      </trkpt>
      <trkpt lat="48.69871" lon="7.17882">
        <ele>375.2</ele>
        <time>2024-01-23T11:13:55Z</time>
      </trkpt>
      <trkpt lat="48.69865" lon="7.17887">
        <ele>374.7</ele>
        <time>2024-01-23T11:14:00Z</time>
      </trkpt>
      <trkpt lat="48.69862" lon="7.17893">
        <ele>374.6</ele>
        <time>2024-01-23T11:14:02Z</time>
      </trkpt>
      <trkpt lat="48.69856" lon="7.17903">
        <ele>374.2</ele>
        <time>2024-01-23T11:14:08Z</time>
      </trkpt>
      <trkpt lat="48.69854" lon="7.17904">
        <ele>374.1</ele>
        <time>2024-01-23T11:14:09Z</time>
      </trkpt>
      <trkpt lat="48.69852" lon="7.17903">
        <ele>373.9</ele>
        <time>2024-01-23T11:14:12Z</time>
      </trkpt>
      <trkpt lat="48.69852" lon="7.17897">
        <ele>374</ele>
        <time>2024-01-23T11:14:16Z</time>
      </trkpt>
      <trkpt lat="48.69853" lon="7.17895">
        <ele>374.2</ele>
        <time>2024-01-23T11:14:19Z</time>
      </trkpt>
      <trkpt lat="48.69854" lon="7.17892">
        <ele>374.2</ele>
        <time>2024-01-23T11:14:21Z</time>
      </trkpt>
      <trkpt lat="48.69855" lon="7.17889">
        <ele>374.4</ele>
        <time>2024-01-23T11:14:27Z</time>
      </trkpt>
      <trkpt lat="48.69857" lon="7.17886">
        <ele>374.5</ele>
        <time>2024-01-23T11:14:29Z</time>
      </trkpt>
      <trkpt lat="48.69859" lon="7.17882">
        <ele>374.7</ele>
        <time>2024-01-23T11:14:32Z</time>
      </trkpt>
      <trkpt lat="48.69862" lon="7.17881">
        <ele>374.9</ele>
        <time>2024-01-23T11:14:35Z</time>
      </trkpt>
      <trkpt lat="48.69867" lon="7.17877">
        <ele>375.4</ele>
        <time>2024-01-23T11:14:42Z</time>
      </trkpt>
      <trkpt lat="48.69868" lon="7.17876">
        <ele>375.4</ele>
        <time>2024-01-23T11:14:45Z</time>
      </trkpt>
      <trkpt lat="48.69871" lon="7.17874">
        <ele>375.8</ele>
        <time>2024-01-23T11:14:49Z</time>
      </trkpt>
      <trkpt lat="48.69888" lon="7.17868">
        <ele>378</ele>
        <time>2024-01-23T11:14:55Z</time>
      </trkpt>
      <trkpt lat="48.69899" lon="7.17864">
        <ele>379.9</ele>
        <time>2024-01-23T11:15:03Z</time>
      </trkpt>
      <trkpt lat="48.69883" lon="7.17874">
        <ele>377.1</ele>
        <time>2024-01-23T11:15:17Z</time>
      </trkpt>
      <trkpt lat="48.69868" lon="7.1789">
        <ele>375.5</ele>
        <time>2024-01-23T11:15:27Z</time>
      </trkpt>
      <trkpt lat="48.69859" lon="7.17905">
        <ele>374.9</ele>
        <time>2024-01-23T11:15:35Z</time>
      </trkpt>
      <trkpt lat="48.69857" lon="7.17907">
        <ele>374.7</ele>
        <time>2024-01-23T11:15:41Z</time>
      </trkpt>
      <trkpt lat="48.69857" lon="7.17902">
        <ele>374.8</ele>
        <time>2024-01-23T11:15:45Z</time>
      </trkpt>
      <trkpt lat="48.69857" lon="7.17896">
        <ele>374.9</ele>
        <time>2024-01-23T11:15:50Z</time>
      </trkpt>
      <trkpt lat="48.69857" lon="7.17895">
        <ele>374.9</ele>
        <time>2024-01-23T11:15:51Z</time>
      </trkpt>
      <trkpt lat="48.69858" lon="7.17895">
        <ele>374.9</ele>
        <time>2024-01-23T11:15:53Z</time>
      </trkpt>
      <trkpt lat="48.69859" lon="7.17891">
        <ele>375.1</ele>
        <time>2024-01-23T11:15:56Z</time>
      </trkpt>
      <trkpt lat="48.6986" lon="7.1789">
        <ele>375.2</ele>
        <time>2024-01-23T11:15:58Z</time>
      </trkpt>
      <trkpt lat="48.69861" lon="7.17888">
        <ele>375.2</ele>
        <time>2024-01-23T11:16:00Z</time>
      </trkpt>
      <trkpt lat="48.69862" lon="7.17888">
        <ele>375.4</ele>
        <time>2024-01-23T11:16:04Z</time>
      </trkpt>
      <trkpt lat="48.69864" lon="7.17884">
        <ele>375.7</ele>
        <time>2024-01-23T11:16:11Z</time>
      </trkpt>
      <trkpt lat="48.69864" lon="7.1788">
        <ele>375.7</ele>
        <time>2024-01-23T11:16:13Z</time>
      </trkpt>
      <trkpt lat="48.69869" lon="7.17868">
        <ele>376.2</ele>
        <time>2024-01-23T11:16:19Z</time>
      </trkpt>
      <trkpt lat="48.69869" lon="7.17868">
        <ele>376.2</ele>
        <time>2024-01-23T11:16:20Z</time>
      </trkpt>
      <trkpt lat="48.6987" lon="7.17866">
        <ele>376.7</ele>
        <time>2024-01-23T11:16:22Z</time>
      </trkpt>
      <trkpt lat="48.69887" lon="7.17857">
        <ele>379.1</ele>
        <time>2024-01-23T11:16:29Z</time>
      </trkpt>
      <trkpt lat="48.69898" lon="7.17848">
        <ele>381.1</ele>
        <time>2024-01-23T11:16:37Z</time>
      </trkpt>
      <trkpt lat="48.69894" lon="7.17852">
        <ele>380.2</ele>
        <time>2024-01-23T11:16:41Z</time>
      </trkpt>
      <trkpt lat="48.69882" lon="7.17865">
        <ele>378.1</ele>
        <time>2024-01-23T11:16:48Z</time>
      </trkpt>
      <trkpt lat="48.69873" lon="7.17883">
        <ele>376.7</ele>
        <time>2024-01-23T11:17:01Z</time>
      </trkpt>
      <trkpt lat="48.6987" lon="7.17888">
        <ele>376.4</ele>
        <time>2024-01-23T11:17:04Z</time>
      </trkpt>
      <trkpt lat="48.69863" lon="7.17903">
        <ele>375.8</ele>
        <time>2024-01-23T11:17:09Z</time>
      </trkpt>
      <trkpt lat="48.6986" lon="7.17907">
        <ele>375.6</ele>
        <time>2024-01-23T11:17:12Z</time>
      </trkpt>
      <trkpt lat="48.6986" lon="7.17909">
        <ele>375.6</ele>
        <time>2024-01-23T11:17:14Z</time>
      </trkpt>
      <trkpt lat="48.69859" lon="7.1791">
        <ele>375.6</ele>
        <time>2024-01-23T11:17:16Z</time>
      </trkpt>
      <trkpt lat="48.6986" lon="7.17908">
        <ele>375.7</ele>
        <time>2024-01-23T11:17:18Z</time>
      </trkpt>
      <trkpt lat="48.69859" lon="7.17908">
        <ele>375.7</ele>
        <time>2024-01-23T11:17:21Z</time>
      </trkpt>
      <trkpt lat="48.6986" lon="7.17907">
        <ele>375.8</ele>
        <time>2024-01-23T11:17:23Z</time>
      </trkpt>
      <trkpt lat="48.69861" lon="7.17904">
        <ele>376</ele>
        <time>2024-01-23T11:17:27Z</time>
      </trkpt>
      <trkpt lat="48.69862" lon="7.17902">
        <ele>376.1</ele>
        <time>2024-01-23T11:17:29Z</time>
      </trkpt>
      <trkpt lat="48.69871" lon="7.17882">
        <ele>376.8</ele>
        <time>2024-01-23T11:17:45Z</time>
      </trkpt>
      <trkpt lat="48.69872" lon="7.17877">
        <ele>376.9</ele>
        <time>2024-01-23T11:17:51Z</time>
      </trkpt>
      <trkpt lat="48.69874" lon="7.17875">
        <ele>377.2</ele>
        <time>2024-01-23T11:17:54Z</time>
      </trkpt>
      <trkpt lat="48.69874" lon="7.17875">
        <ele>377.3</ele>
        <time>2024-01-23T11:17:55Z</time>
      </trkpt>
      <trkpt lat="48.69875" lon="7.17872">
        <ele>377.6</ele>
        <time>2024-01-23T11:17:58Z</time>
      </trkpt>
      <trkpt lat="48.69894" lon="7.17864">
        <ele>380.3</ele>
        <time>2024-01-23T11:18:06Z</time>
      </trkpt>
      <trkpt lat="48.69894" lon="7.1786">
        <ele>380.5</ele>
        <time>2024-01-23T11:18:10Z</time>
      </trkpt>
      <trkpt lat="48.69874" lon="7.17877">
        <ele>377.3</ele>
        <time>2024-01-23T11:18:31Z</time>
      </trkpt>
      <trkpt lat="48.6986" lon="7.17897">
        <ele>376.2</ele>
        <time>2024-01-23T11:18:38Z</time>
      </trkpt>
      <trkpt lat="48.69856" lon="7.17905">
        <ele>375.9</ele>
        <time>2024-01-23T11:18:42Z</time>
      </trkpt>
      <trkpt lat="48.69855" lon="7.17907">
        <ele>375.8</ele>
        <time>2024-01-23T11:18:43Z</time>
      </trkpt>
      <trkpt lat="48.69853" lon="7.1791">
        <ele>375.7</ele>
        <time>2024-01-23T11:18:45Z</time>
      </trkpt>
      <trkpt lat="48.69853" lon="7.17912">
        <ele>375.8</ele>
        <time>2024-01-23T11:18:47Z</time>
      </trkpt>
      <trkpt lat="48.69853" lon="7.17911">
        <ele>375.8</ele>
        <time>2024-01-23T11:18:49Z</time>
      </trkpt>
      <trkpt lat="48.69854" lon="7.17906">
        <ele>375.9</ele>
        <time>2024-01-23T11:18:53Z</time>
      </trkpt>
      <trkpt lat="48.69855" lon="7.17903">
        <ele>376</ele>
        <time>2024-01-23T11:18:56Z</time>
      </trkpt>
      <trkpt lat="48.69859" lon="7.17896">
        <ele>376.4</ele>
        <time>2024-01-23T11:19:02Z</time>
      </trkpt>
      <trkpt lat="48.6986" lon="7.17894">
        <ele>376.5</ele>
        <time>2024-01-23T11:19:04Z</time>
      </trkpt>
      <trkpt lat="48.69862" lon="7.17893">
        <ele>376.7</ele>
        <time>2024-01-23T11:19:08Z</time>
      </trkpt>
      <trkpt lat="48.69864" lon="7.17893">
        <ele>376.7</ele>
        <time>2024-01-23T11:19:11Z</time>
      </trkpt>
      <trkpt lat="48.69864" lon="7.17891">
        <ele>376.9</ele>
        <time>2024-01-23T11:19:14Z</time>
      </trkpt>
      <trkpt lat="48.69866" lon="7.17885">
        <ele>377</ele>
        <time>2024-01-23T11:19:23Z</time>
      </trkpt>
      <trkpt lat="48.69868" lon="7.1788">
        <ele>377.3</ele>
        <time>2024-01-23T11:19:27Z</time>
      </trkpt>
      <trkpt lat="48.69869" lon="7.17879">
        <ele>377.3</ele>
        <time>2024-01-23T11:19:29Z</time>
      </trkpt>
      <trkpt lat="48.69887" lon="7.17868">
        <ele>379.9</ele>
        <time>2024-01-23T11:19:36Z</time>
      </trkpt>
      <trkpt lat="48.69895" lon="7.17862">
        <ele>381.5</ele>
        <time>2024-01-23T11:19:40Z</time>
      </trkpt>
      <trkpt lat="48.69896" lon="7.17859">
        <ele>381.6</ele>
        <time>2024-01-23T11:19:43Z</time>
      </trkpt>
      <trkpt lat="48.69883" lon="7.17873">
        <ele>379</ele>
        <time>2024-01-23T11:19:59Z</time>
      </trkpt>
      <trkpt lat="48.69868" lon="7.17893">
        <ele>377.4</ele>
        <time>2024-01-23T11:20:11Z</time>
      </trkpt>
      <trkpt lat="48.69863" lon="7.17901">
        <ele>377</ele>
        <time>2024-01-23T11:20:17Z</time>
      </trkpt>
      <trkpt lat="48.69861" lon="7.17907">
        <ele>376.8</ele>
        <time>2024-01-23T11:20:22Z</time>
      </trkpt>
      <trkpt lat="48.6986" lon="7.17907">
        <ele>376.8</ele>
        <time>2024-01-23T11:20:25Z</time>
      </trkpt>
      <trkpt lat="48.69862" lon="7.17905">
        <ele>377.1</ele>
        <time>2024-01-23T11:20:29Z</time>
      </trkpt>
      <trkpt lat="48.69863" lon="7.17904">
        <ele>377.1</ele>
        <time>2024-01-23T11:20:31Z</time>
      </trkpt>
      <trkpt lat="48.69873" lon="7.17873">
        <ele>378.3</ele>
        <time>2024-01-23T11:20:51Z</time>
      </trkpt>
      <trkpt lat="48.69876" lon="7.17871">
        <ele>378.6</ele>
        <time>2024-01-23T11:20:56Z</time>
      </trkpt>
      <trkpt lat="48.69876" lon="7.1787">
        <ele>378.8</ele>
        <time>2024-01-23T11:21:01Z</time>
      </trkpt>
      <trkpt lat="48.69876" lon="7.17871">
        <ele>378.8</ele>
        <time>2024-01-23T11:21:02Z</time>
      </trkpt>
      <trkpt lat="48.69877" lon="7.17865">
        <ele>379</ele>
        <time>2024-01-23T11:21:06Z</time>
      </trkpt>
      <trkpt lat="48.69894" lon="7.17857">
        <ele>381.7</ele>
        <time>2024-01-23T11:21:13Z</time>
      </trkpt>
      <trkpt lat="48.69896" lon="7.17852">
        <ele>382.3</ele>
        <time>2024-01-23T11:21:18Z</time>
      </trkpt>
      <trkpt lat="48.69894" lon="7.17852">
        <ele>381.9</ele>
        <time>2024-01-23T11:21:20Z</time>
      </trkpt>
      <trkpt lat="48.69875" lon="7.17866">
        <ele>379.1</ele>
        <time>2024-01-23T11:21:32Z</time>
      </trkpt>
      <trkpt lat="48.69862" lon="7.17888">
        <ele>377.5</ele>
        <time>2024-01-23T11:21:44Z</time>
      </trkpt>
      <trkpt lat="48.69861" lon="7.17893">
        <ele>377.3</ele>
        <time>2024-01-23T11:21:46Z</time>
      </trkpt>
      <trkpt lat="48.6986" lon="7.17896">
        <ele>377.3</ele>
        <time>2024-01-23T11:21:48Z</time>
      </trkpt>
      <trkpt lat="48.69859" lon="7.17895">
        <ele>377.4</ele>
        <time>2024-01-23T11:21:50Z</time>
      </trkpt>
      <trkpt lat="48.69856" lon="7.17895">
        <ele>377.2</ele>
        <time>2024-01-23T11:21:54Z</time>
      </trkpt>
      <trkpt lat="48.69856" lon="7.17886">
        <ele>377.3</ele>
        <time>2024-01-23T11:22:04Z</time>
      </trkpt>
      <trkpt lat="48.69858" lon="7.17881">
        <ele>377.5</ele>
        <time>2024-01-23T11:22:08Z</time>
      </trkpt>
      <trkpt lat="48.69872" lon="7.17864">
        <ele>378.8</ele>
        <time>2024-01-23T11:22:31Z</time>
      </trkpt>
      <trkpt lat="48.69874" lon="7.17861">
        <ele>379.3</ele>
        <time>2024-01-23T11:22:34Z</time>
      </trkpt>
      <trkpt lat="48.69892" lon="7.17851">
        <ele>381.9</ele>
        <time>2024-01-23T11:22:41Z</time>
      </trkpt>
      <trkpt lat="48.69889" lon="7.17851">
        <ele>381.9</ele>
        <time>2024-01-23T11:22:59Z</time>
      </trkpt>
      <trkpt lat="48.69874" lon="7.17872">
        <ele>378.9</ele>
        <time>2024-01-23T11:23:09Z</time>
      </trkpt>
      <trkpt lat="48.6986" lon="7.1789">
        <ele>377.7</ele>
        <time>2024-01-23T11:23:17Z</time>
      </trkpt>
      <trkpt lat="48.69854" lon="7.17902">
        <ele>377.3</ele>
        <time>2024-01-23T11:23:23Z</time>
      </trkpt>
      <trkpt lat="48.69854" lon="7.17902">
        <ele>377.3</ele>
        <time>2024-01-23T11:23:24Z</time>
      </trkpt>
      <trkpt lat="48.69853" lon="7.17906">
        <ele>377.3</ele>
        <time>2024-01-23T11:23:28Z</time>
      </trkpt>
      <trkpt lat="48.69853" lon="7.17905">
        <ele>377.3</ele>
        <time>2024-01-23T11:23:30Z</time>
      </trkpt>
      <trkpt lat="48.69853" lon="7.17903">
        <ele>377.4</ele>
        <time>2024-01-23T11:23:33Z</time>
      </trkpt>
      <trkpt lat="48.69854" lon="7.179">
        <ele>377.5</ele>
        <time>2024-01-23T11:23:37Z</time>
      </trkpt>
      <trkpt lat="48.69855" lon="7.17899">
        <ele>377.7</ele>
        <time>2024-01-23T11:23:39Z</time>
      </trkpt>
      <trkpt lat="48.69857" lon="7.17897">
        <ele>377.7</ele>
        <time>2024-01-23T11:23:41Z</time>
      </trkpt>
      <trkpt lat="48.69859" lon="7.17893">
        <ele>378</ele>
        <time>2024-01-23T11:23:44Z</time>
      </trkpt>
      <trkpt lat="48.6986" lon="7.17889">
        <ele>378</ele>
        <time>2024-01-23T11:23:47Z</time>
      </trkpt>
      <trkpt lat="48.69861" lon="7.17888">
        <ele>378.2</ele>
        <time>2024-01-23T11:23:49Z</time>
      </trkpt>
      <trkpt lat="48.69862" lon="7.17878">
        <ele>378.3</ele>
        <time>2024-01-23T11:23:54Z</time>
      </trkpt>
      <trkpt lat="48.69872" lon="7.17868">
        <ele>379.2</ele>
        <time>2024-01-23T11:24:07Z</time>
      </trkpt>
      <trkpt lat="48.69872" lon="7.17867">
        <ele>379.2</ele>
        <time>2024-01-23T11:24:08Z</time>
      </trkpt>
      <trkpt lat="48.69889" lon="7.17857">
        <ele>381.8</ele>
        <time>2024-01-23T11:24:17Z</time>
      </trkpt>
      <trkpt lat="48.69903" lon="7.1785">
        <ele>384.1</ele>
        <time>2024-01-23T11:24:27Z</time>
      </trkpt>
      <trkpt lat="48.69884" lon="7.17863">
        <ele>381.1</ele>
        <time>2024-01-23T11:24:46Z</time>
      </trkpt>
      <trkpt lat="48.69873" lon="7.17885">
        <ele>379.3</ele>
        <time>2024-01-23T11:24:57Z</time>
      </trkpt>
      <trkpt lat="48.69862" lon="7.17907">
        <ele>378.4</ele>
        <time>2024-01-23T11:25:11Z</time>
      </trkpt>
      <trkpt lat="48.6986" lon="7.17909">
        <ele>378.2</ele>
        <time>2024-01-23T11:25:12Z</time>
      </trkpt>
      <trkpt lat="48.69846" lon="7.1793">
        <ele>376.8</ele>
        <time>2024-01-23T11:25:18Z</time>
      </trkpt>
      <trkpt lat="48.69831" lon="7.17945">
        <ele>376.2</ele>
        <time>2024-01-23T11:25:28Z</time>
      </trkpt>
      <trkpt lat="48.69812" lon="7.1795">
        <ele>375.5</ele>
        <time>2024-01-23T11:25:40Z</time>
      </trkpt>
      <trkpt lat="48.69792" lon="7.17955">
        <ele>373.9</ele>
        <time>2024-01-23T11:25:52Z</time>
      </trkpt>
      <trkpt lat="48.69768" lon="7.17961">
        <ele>372.2</ele>
        <time>2024-01-23T11:26:04Z</time>
      </trkpt>
      <trkpt lat="48.69764" lon="7.17962">
        <ele>371.9</ele>
        <time>2024-01-23T11:26:08Z</time>
      </trkpt>
      <trkpt lat="48.69747" lon="7.17979">
        <ele>369</ele>
        <time>2024-01-23T11:26:16Z</time>
      </trkpt>
      <trkpt lat="48.69729" lon="7.17988">
        <ele>367.6</ele>
        <time>2024-01-23T11:26:23Z</time>
      </trkpt>
      <trkpt lat="48.69711" lon="7.17999">
        <ele>366.1</ele>
        <time>2024-01-23T11:26:32Z</time>
      </trkpt>
      <trkpt lat="48.69693" lon="7.1801">
        <ele>364.3</ele>
        <time>2024-01-23T11:26:41Z</time>
      </trkpt>
      <trkpt lat="48.69677" lon="7.18024">
        <ele>362.5</ele>
        <time>2024-01-23T11:26:53Z</time>
      </trkpt>
      <trkpt lat="48.69666" lon="7.18037">
        <ele>361.6</ele>
        <time>2024-01-23T11:27:01Z</time>
      </trkpt>
      <trkpt lat="48.69659" lon="7.18045">
        <ele>361.5</ele>
        <time>2024-01-23T11:27:04Z</time>
      </trkpt>
      <trkpt lat="48.69652" lon="7.18059">
        <ele>360.2</ele>
        <time>2024-01-23T11:27:09Z</time>
      </trkpt>
      <trkpt lat="48.69638" lon="7.18082">
        <ele>358.8</ele>
        <time>2024-01-23T11:27:16Z</time>
      </trkpt>
      <trkpt lat="48.69628" lon="7.18106">
        <ele>358.3</ele>
        <time>2024-01-23T11:27:23Z</time>
      </trkpt>
      <trkpt lat="48.69618" lon="7.1813">
        <ele>356.5</ele>
        <time>2024-01-23T11:27:33Z</time>
      </trkpt>
      <trkpt lat="48.6961" lon="7.18156">
        <ele>355.2</ele>
        <time>2024-01-23T11:27:37Z</time>
      </trkpt>
      <trkpt lat="48.69602" lon="7.18181">
        <ele>354.6</ele>
        <time>2024-01-23T11:27:45Z</time>
      </trkpt>
      <trkpt lat="48.69596" lon="7.18207">
        <ele>353.5</ele>
        <time>2024-01-23T11:27:52Z</time>
      </trkpt>
      <trkpt lat="48.69588" lon="7.18234">
        <ele>353</ele>
        <time>2024-01-23T11:28:00Z</time>
      </trkpt>
      <trkpt lat="48.69572" lon="7.18258">
        <ele>354.4</ele>
        <time>2024-01-23T11:28:07Z</time>
      </trkpt>
      <trkpt lat="48.69552" lon="7.18276">
        <ele>359.3</ele>
        <time>2024-01-23T11:28:14Z</time>
      </trkpt>
      <trkpt lat="48.69539" lon="7.18295">
        <ele>362</ele>
        <time>2024-01-23T11:28:18Z</time>
      </trkpt>
      <trkpt lat="48.69525" lon="7.18316">
        <ele>363.5</ele>
        <time>2024-01-23T11:28:24Z</time>
      </trkpt>
      <trkpt lat="48.6951" lon="7.18333">
        <ele>364.3</ele>
        <time>2024-01-23T11:28:28Z</time>
      </trkpt>
      <trkpt lat="48.69495" lon="7.18349">
        <ele>366.3</ele>
        <time>2024-01-23T11:28:35Z</time>
      </trkpt>
      <trkpt lat="48.69483" lon="7.18374">
        <ele>366.3</ele>
        <time>2024-01-23T11:28:43Z</time>
      </trkpt>
      <trkpt lat="48.69469" lon="7.18398">
        <ele>367.7</ele>
        <time>2024-01-23T11:28:50Z</time>
      </trkpt>
      <trkpt lat="48.69453" lon="7.18421">
        <ele>369.5</ele>
        <time>2024-01-23T11:28:58Z</time>
      </trkpt>
      <trkpt lat="48.69447" lon="7.18441">
        <ele>370.8</ele>
        <time>2024-01-23T11:29:05Z</time>
      </trkpt>
      <trkpt lat="48.6943" lon="7.18457">
        <ele>374</ele>
        <time>2024-01-23T11:29:15Z</time>
      </trkpt>
      <trkpt lat="48.69418" lon="7.1848">
        <ele>375.8</ele>
        <time>2024-01-23T11:29:27Z</time>
      </trkpt>
      <trkpt lat="48.69417" lon="7.18485">
        <ele>375.7</ele>
        <time>2024-01-23T11:29:28Z</time>
      </trkpt>
      <trkpt lat="48.69417" lon="7.18514">
        <ele>375.6</ele>
        <time>2024-01-23T11:29:39Z</time>
      </trkpt>
      <trkpt lat="48.69415" lon="7.18543">
        <ele>375.4</ele>
        <time>2024-01-23T11:29:49Z</time>
      </trkpt>
      <trkpt lat="48.69414" lon="7.1857">
        <ele>375</ele>
        <time>2024-01-23T11:29:58Z</time>
      </trkpt>
      <trkpt lat="48.69415" lon="7.186">
        <ele>375.6</ele>
        <time>2024-01-23T11:30:07Z</time>
      </trkpt>
      <trkpt lat="48.6942" lon="7.18627">
        <ele>374.4</ele>
        <time>2024-01-23T11:30:16Z</time>
      </trkpt>
      <trkpt lat="48.69426" lon="7.18657">
        <ele>373.1</ele>
        <time>2024-01-23T11:30:24Z</time>
      </trkpt>
      <trkpt lat="48.69429" lon="7.18685">
        <ele>372.1</ele>
        <time>2024-01-23T11:30:33Z</time>
      </trkpt>
      <trkpt lat="48.69432" lon="7.18715">
        <ele>371.8</ele>
        <time>2024-01-23T11:30:40Z</time>
      </trkpt>
      <trkpt lat="48.69433" lon="7.18744">
        <ele>372.4</ele>
        <time>2024-01-23T11:30:45Z</time>
      </trkpt>
      <trkpt lat="48.69427" lon="7.18773">
        <ele>374.7</ele>
        <time>2024-01-23T11:30:52Z</time>
      </trkpt>
      <trkpt lat="48.69422" lon="7.18802">
        <ele>377.5</ele>
        <time>2024-01-23T11:31:00Z</time>
      </trkpt>
      <trkpt lat="48.69421" lon="7.18835">
        <ele>378.2</ele>
        <time>2024-01-23T11:31:08Z</time>
      </trkpt>
      <trkpt lat="48.69408" lon="7.18858">
        <ele>382</ele>
        <time>2024-01-23T11:31:14Z</time>
      </trkpt>
      <trkpt lat="48.69403" lon="7.18888">
        <ele>382.4</ele>
        <time>2024-01-23T11:31:21Z</time>
      </trkpt>
      <trkpt lat="48.69404" lon="7.18924">
        <ele>378.8</ele>
        <time>2024-01-23T11:31:28Z</time>
      </trkpt>
      <trkpt lat="48.694" lon="7.18953">
        <ele>376.3</ele>
        <time>2024-01-23T11:31:35Z</time>
      </trkpt>
      <trkpt lat="48.69398" lon="7.18986">
        <ele>371.8</ele>
        <time>2024-01-23T11:31:47Z</time>
      </trkpt>
      <trkpt lat="48.69388" lon="7.19009">
        <ele>370.2</ele>
        <time>2024-01-23T11:32:03Z</time>
      </trkpt>
      <trkpt lat="48.69368" lon="7.19015">
        <ele>375.7</ele>
        <time>2024-01-23T11:32:11Z</time>
      </trkpt>
      <trkpt lat="48.69347" lon="7.19016">
        <ele>381.9</ele>
        <time>2024-01-23T11:32:19Z</time>
      </trkpt>
      <trkpt lat="48.69337" lon="7.19013">
        <ele>383.5</ele>
        <time>2024-01-23T11:32:23Z</time>
      </trkpt>
      <trkpt lat="48.69322" lon="7.18995">
        <ele>383.1</ele>
        <time>2024-01-23T11:32:30Z</time>
      </trkpt>
      <trkpt lat="48.69306" lon="7.18974">
        <ele>382.7</ele>
        <time>2024-01-23T11:32:37Z</time>
      </trkpt>
      <trkpt lat="48.69289" lon="7.18958">
        <ele>382.3</ele>
        <time>2024-01-23T11:32:44Z</time>
      </trkpt>
      <trkpt lat="48.69272" lon="7.18947">
        <ele>382</ele>
        <time>2024-01-23T11:32:51Z</time>
      </trkpt>
      <trkpt lat="48.69257" lon="7.18932">
        <ele>381.6</ele>
        <time>2024-01-23T11:32:58Z</time>
      </trkpt>
      <trkpt lat="48.69244" lon="7.18912">
        <ele>381.3</ele>
        <time>2024-01-23T11:33:04Z</time>
      </trkpt>
      <trkpt lat="48.6923" lon="7.18888">
        <ele>380.9</ele>
        <time>2024-01-23T11:33:10Z</time>
      </trkpt>
      <trkpt lat="48.69212" lon="7.18875">
        <ele>380.5</ele>
        <time>2024-01-23T11:33:16Z</time>
      </trkpt>
      <trkpt lat="48.69194" lon="7.18866">
        <ele>380.1</ele>
        <time>2024-01-23T11:33:21Z</time>
      </trkpt>
      <trkpt lat="48.69173" lon="7.1886">
        <ele>379.7</ele>
        <time>2024-01-23T11:33:27Z</time>
      </trkpt>
      <trkpt lat="48.69153" lon="7.1886">
        <ele>379.3</ele>
        <time>2024-01-23T11:33:33Z</time>
      </trkpt>
      <trkpt lat="48.69133" lon="7.18867">
        <ele>378.9</ele>
        <time>2024-01-23T11:33:40Z</time>
      </trkpt>
      <trkpt lat="48.69114" lon="7.18876">
        <ele>378.5</ele>
        <time>2024-01-23T11:33:49Z</time>
      </trkpt>
      <trkpt lat="48.69102" lon="7.18898">
        <ele>378.2</ele>
        <time>2024-01-23T11:33:59Z</time>
      </trkpt>
      <trkpt lat="48.69084" lon="7.18906">
        <ele>377.8</ele>
        <time>2024-01-23T11:34:11Z</time>
      </trkpt>
      <trkpt lat="48.69083" lon="7.18908">
        <ele>377.8</ele>
        <time>2024-01-23T11:34:12Z</time>
      </trkpt>
      <trkpt lat="48.69076" lon="7.18924">
        <ele>377.5</ele>
        <time>2024-01-23T11:34:14Z</time>
      </trkpt>
      <trkpt lat="48.69066" lon="7.18953">
        <ele>377.1</ele>
        <time>2024-01-23T11:34:18Z</time>
      </trkpt>
      <trkpt lat="48.69057" lon="7.18979">
        <ele>376.8</ele>
        <time>2024-01-23T11:34:24Z</time>
      </trkpt>
      <trkpt lat="48.69045" lon="7.19003">
        <ele>376.4</ele>
        <time>2024-01-23T11:34:32Z</time>
      </trkpt>
      <trkpt lat="48.69025" lon="7.19023">
        <ele>375.9</ele>
        <time>2024-01-23T11:34:38Z</time>
      </trkpt>
      <trkpt lat="48.69015" lon="7.19049">
        <ele>375.5</ele>
        <time>2024-01-23T11:34:44Z</time>
      </trkpt>
      <trkpt lat="48.69003" lon="7.19072">
        <ele>375.2</ele>
        <time>2024-01-23T11:34:49Z</time>
      </trkpt>
      <trkpt lat="48.68987" lon="7.19088">
        <ele>374.8</ele>
        <time>2024-01-23T11:34:53Z</time>
      </trkpt>
      <trkpt lat="48.68968" lon="7.191">
        <ele>374.4</ele>
        <time>2024-01-23T11:34:58Z</time>
      </trkpt>
      <trkpt lat="48.68948" lon="7.19101">
        <ele>374</ele>
        <time>2024-01-23T11:35:05Z</time>
      </trkpt>
      <trkpt lat="48.68931" lon="7.19087">
        <ele>373.7</ele>
        <time>2024-01-23T11:35:12Z</time>
      </trkpt>
      <trkpt lat="48.68916" lon="7.19067">
        <ele>373.3</ele>
        <time>2024-01-23T11:35:19Z</time>
      </trkpt>
      <trkpt lat="48.68901" lon="7.19049">
        <ele>372.9</ele>
        <time>2024-01-23T11:35:26Z</time>
      </trkpt>
      <trkpt lat="48.68895" lon="7.19035">
        <ele>372.7</ele>
        <time>2024-01-23T11:35:31Z</time>
      </trkpt>
      <trkpt lat="48.68906" lon="7.1901">
        <ele>375.3</ele>
        <time>2024-01-23T11:35:39Z</time>
      </trkpt>
      <trkpt lat="48.68923" lon="7.18992">
        <ele>377.5</ele>
        <time>2024-01-23T11:35:48Z</time>
      </trkpt>
      <trkpt lat="48.68938" lon="7.18976">
        <ele>378.5</ele>
        <time>2024-01-23T11:35:55Z</time>
      </trkpt>
      <trkpt lat="48.6895" lon="7.18953">
        <ele>379.5</ele>
        <time>2024-01-23T11:36:04Z</time>
      </trkpt>
      <trkpt lat="48.68955" lon="7.18924">
        <ele>380.8</ele>
        <time>2024-01-23T11:36:15Z</time>
      </trkpt>
      <trkpt lat="48.68958" lon="7.18896">
        <ele>381.9</ele>
        <time>2024-01-23T11:36:25Z</time>
      </trkpt>
      <trkpt lat="48.68958" lon="7.18865">
        <ele>383.4</ele>
        <time>2024-01-23T11:36:32Z</time>
      </trkpt>
      <trkpt lat="48.68964" lon="7.18839">
        <ele>384.9</ele>
        <time>2024-01-23T11:36:37Z</time>
      </trkpt>
      <trkpt lat="48.68979" lon="7.18821">
        <ele>386.7</ele>
        <time>2024-01-23T11:36:45Z</time>
      </trkpt>
      <trkpt lat="48.68996" lon="7.1881">
        <ele>388.6</ele>
        <time>2024-01-23T11:36:52Z</time>
      </trkpt>
      <trkpt lat="48.69013" lon="7.188">
        <ele>390.3</ele>
        <time>2024-01-23T11:36:59Z</time>
      </trkpt>
      <trkpt lat="48.6903" lon="7.18784">
        <ele>392.2</ele>
        <time>2024-01-23T11:37:08Z</time>
      </trkpt>
      <trkpt lat="48.69046" lon="7.18771">
        <ele>394.4</ele>
        <time>2024-01-23T11:37:14Z</time>
      </trkpt>
      <trkpt lat="48.69066" lon="7.18762">
        <ele>396.8</ele>
        <time>2024-01-23T11:37:21Z</time>
      </trkpt>
      <trkpt lat="48.69086" lon="7.18757">
        <ele>399.8</ele>
        <time>2024-01-23T11:37:29Z</time>
      </trkpt>
      <trkpt lat="48.69102" lon="7.18743">
        <ele>403.9</ele>
        <time>2024-01-23T11:37:39Z</time>
      </trkpt>
      <trkpt lat="48.69111" lon="7.1872">
        <ele>407.7</ele>
        <time>2024-01-23T11:37:50Z</time>
      </trkpt>
      <trkpt lat="48.69116" lon="7.18693">
        <ele>412.3</ele>
        <time>2024-01-23T11:38:02Z</time>
      </trkpt>
      <trkpt lat="48.69104" lon="7.18675">
        <ele>411.8</ele>
        <time>2024-01-23T11:38:12Z</time>
      </trkpt>
      <trkpt lat="48.69086" lon="7.18672">
        <ele>411.4</ele>
        <time>2024-01-23T11:38:19Z</time>
      </trkpt>
      <trkpt lat="48.69065" lon="7.18666">
        <ele>410.8</ele>
        <time>2024-01-23T11:38:26Z</time>
      </trkpt>
      <trkpt lat="48.69047" lon="7.18657">
        <ele>410.3</ele>
        <time>2024-01-23T11:38:32Z</time>
      </trkpt>
      <trkpt lat="48.6903" lon="7.18643">
        <ele>409.8</ele>
        <time>2024-01-23T11:38:38Z</time>
      </trkpt>
      <trkpt lat="48.69012" lon="7.18626">
        <ele>409.3</ele>
        <time>2024-01-23T11:38:44Z</time>
      </trkpt>
      <trkpt lat="48.68996" lon="7.18612">
        <ele>408.8</ele>
        <time>2024-01-23T11:38:50Z</time>
      </trkpt>
      <trkpt lat="48.68976" lon="7.18603">
        <ele>408.2</ele>
        <time>2024-01-23T11:38:57Z</time>
      </trkpt>
      <trkpt lat="48.6896" lon="7.18585">
        <ele>407.7</ele>
        <time>2024-01-23T11:39:03Z</time>
      </trkpt>
      <trkpt lat="48.68948" lon="7.18562">
        <ele>407.2</ele>
        <time>2024-01-23T11:39:09Z</time>
      </trkpt>
      <trkpt lat="48.68936" lon="7.1854">
        <ele>406.8</ele>
        <time>2024-01-23T11:39:15Z</time>
      </trkpt>
      <trkpt lat="48.68926" lon="7.18517">
        <ele>406.3</ele>
        <time>2024-01-23T11:39:21Z</time>
      </trkpt>
      <trkpt lat="48.68916" lon="7.18494">
        <ele>405.8</ele>
        <time>2024-01-23T11:39:29Z</time>
      </trkpt>
      <trkpt lat="48.68904" lon="7.1847">
        <ele>405.3</ele>
        <time>2024-01-23T11:39:37Z</time>
      </trkpt>
      <trkpt lat="48.68892" lon="7.18446">
        <ele>404.8</ele>
        <time>2024-01-23T11:39:48Z</time>
      </trkpt>
      <trkpt lat="48.68892" lon="7.18421">
        <ele>404.4</ele>
        <time>2024-01-23T11:39:58Z</time>
      </trkpt>
      <trkpt lat="48.68886" lon="7.18394">
        <ele>403.9</ele>
        <time>2024-01-23T11:40:08Z</time>
      </trkpt>
      <trkpt lat="48.68882" lon="7.18365">
        <ele>403.4</ele>
        <time>2024-01-23T11:40:17Z</time>
      </trkpt>
      <trkpt lat="48.68879" lon="7.18337">
        <ele>402.9</ele>
        <time>2024-01-23T11:40:25Z</time>
      </trkpt>
      <trkpt lat="48.68884" lon="7.18308">
        <ele>402.4</ele>
        <time>2024-01-23T11:40:31Z</time>
      </trkpt>
      <trkpt lat="48.68885" lon="7.18278">
        <ele>401.9</ele>
        <time>2024-01-23T11:40:36Z</time>
      </trkpt>
      <trkpt lat="48.68886" lon="7.18245">
        <ele>401.3</ele>
        <time>2024-01-23T11:40:41Z</time>
      </trkpt>
      <trkpt lat="48.68891" lon="7.18215">
        <ele>400.8</ele>
        <time>2024-01-23T11:40:48Z</time>
      </trkpt>
      <trkpt lat="48.68903" lon="7.18194">
        <ele>400.3</ele>
        <time>2024-01-23T11:40:56Z</time>
      </trkpt>
      <trkpt lat="48.68916" lon="7.18169">
        <ele>399.8</ele>
        <time>2024-01-23T11:41:03Z</time>
      </trkpt>
      <trkpt lat="48.68926" lon="7.18142">
        <ele>399.2</ele>
        <time>2024-01-23T11:41:08Z</time>
      </trkpt>
      <trkpt lat="48.68935" lon="7.1811">
        <ele>398.6</ele>
        <time>2024-01-23T11:41:13Z</time>
      </trkpt>
      <trkpt lat="48.68942" lon="7.18073">
        <ele>398</ele>
        <time>2024-01-23T11:41:18Z</time>
      </trkpt>
      <trkpt lat="48.68948" lon="7.18038">
        <ele>397.4</ele>
        <time>2024-01-23T11:41:23Z</time>
      </trkpt>
      <trkpt lat="48.6896" lon="7.18015">
        <ele>396.9</ele>
        <time>2024-01-23T11:41:29Z</time>
      </trkpt>
      <trkpt lat="48.68972" lon="7.17983">
        <ele>396.2</ele>
        <time>2024-01-23T11:41:36Z</time>
      </trkpt>
      <trkpt lat="48.68978" lon="7.17946">
        <ele>395.6</ele>
        <time>2024-01-23T11:41:43Z</time>
      </trkpt>
      <trkpt lat="48.68986" lon="7.17918">
        <ele>395.1</ele>
        <time>2024-01-23T11:41:49Z</time>
      </trkpt>
      <trkpt lat="48.68995" lon="7.17891">
        <ele>394.6</ele>
        <time>2024-01-23T11:41:55Z</time>
      </trkpt>
      <trkpt lat="48.69003" lon="7.17864">
        <ele>394.1</ele>
        <time>2024-01-23T11:42:01Z</time>
      </trkpt>
      <trkpt lat="48.69012" lon="7.17836">
        <ele>393.5</ele>
        <time>2024-01-23T11:42:07Z</time>
      </trkpt>
      <trkpt lat="48.69016" lon="7.17808">
        <ele>393</ele>
        <time>2024-01-23T11:42:12Z</time>
      </trkpt>
      <trkpt lat="48.69023" lon="7.1778">
        <ele>392.5</ele>
        <time>2024-01-23T11:42:18Z</time>
      </trkpt>
      <trkpt lat="48.69039" lon="7.17761">
        <ele>392</ele>
        <time>2024-01-23T11:42:23Z</time>
      </trkpt>
      <trkpt lat="48.69054" lon="7.17744">
        <ele>392</ele>
        <time>2024-01-23T11:42:28Z</time>
      </trkpt>
      <trkpt lat="48.6907" lon="7.17725">
        <ele>392.4</ele>
        <time>2024-01-23T11:42:35Z</time>
      </trkpt>
      <trkpt lat="48.69084" lon="7.17704">
        <ele>392.2</ele>
        <time>2024-01-23T11:42:41Z</time>
      </trkpt>
      <trkpt lat="48.69095" lon="7.17681">
        <ele>391.7</ele>
        <time>2024-01-23T11:42:46Z</time>
      </trkpt>
      <trkpt lat="48.6911" lon="7.17662">
        <ele>391.3</ele>
        <time>2024-01-23T11:42:51Z</time>
      </trkpt>
      <trkpt lat="48.69125" lon="7.1764">
        <ele>390.8</ele>
        <time>2024-01-23T11:42:57Z</time>
      </trkpt>
      <trkpt lat="48.6914" lon="7.17617">
        <ele>389.6</ele>
        <time>2024-01-23T11:43:05Z</time>
      </trkpt>
      <trkpt lat="48.69151" lon="7.17596">
        <ele>388.7</ele>
        <time>2024-01-23T11:43:13Z</time>
      </trkpt>
      <trkpt lat="48.69159" lon="7.17569">
        <ele>387.6</ele>
        <time>2024-01-23T11:43:20Z</time>
      </trkpt>
      <trkpt lat="48.69164" lon="7.17542">
        <ele>386.3</ele>
        <time>2024-01-23T11:43:26Z</time>
      </trkpt>
      <trkpt lat="48.69168" lon="7.17512">
        <ele>385.2</ele>
        <time>2024-01-23T11:43:32Z</time>
      </trkpt>
      <trkpt lat="48.69168" lon="7.17481">
        <ele>384.6</ele>
        <time>2024-01-23T11:43:38Z</time>
      </trkpt>
      <trkpt lat="48.69172" lon="7.17452">
        <ele>384.1</ele>
        <time>2024-01-23T11:43:44Z</time>
      </trkpt>
      <trkpt lat="48.69177" lon="7.17424">
        <ele>383.8</ele>
        <time>2024-01-23T11:43:50Z</time>
      </trkpt>
      <trkpt lat="48.69187" lon="7.174">
        <ele>383.5</ele>
        <time>2024-01-23T11:43:56Z</time>
      </trkpt>
      <trkpt lat="48.69197" lon="7.17374">
        <ele>382.8</ele>
        <time>2024-01-23T11:44:02Z</time>
      </trkpt>
      <trkpt lat="48.69214" lon="7.17356">
        <ele>382.7</ele>
        <time>2024-01-23T11:44:08Z</time>
      </trkpt>
      <trkpt lat="48.69229" lon="7.17335">
        <ele>383.1</ele>
        <time>2024-01-23T11:44:15Z</time>
      </trkpt>
      <trkpt lat="48.69246" lon="7.17324">
        <ele>383.2</ele>
        <time>2024-01-23T11:44:23Z</time>
      </trkpt>
      <trkpt lat="48.69261" lon="7.17307">
        <ele>383.1</ele>
        <time>2024-01-23T11:44:30Z</time>
      </trkpt>
      <trkpt lat="48.69279" lon="7.17298">
        <ele>382.8</ele>
        <time>2024-01-23T11:44:37Z</time>
      </trkpt>
      <trkpt lat="48.69296" lon="7.17281">
        <ele>382.2</ele>
        <time>2024-01-23T11:44:45Z</time>
      </trkpt>
      <trkpt lat="48.69313" lon="7.17269">
        <ele>381.8</ele>
        <time>2024-01-23T11:44:54Z</time>
      </trkpt>
      <trkpt lat="48.69331" lon="7.17267">
        <ele>381.5</ele>
        <time>2024-01-23T11:45:02Z</time>
      </trkpt>
      <trkpt lat="48.6935" lon="7.17269">
        <ele>381.4</ele>
        <time>2024-01-23T11:45:11Z</time>
      </trkpt>
      <trkpt lat="48.6937" lon="7.17272">
        <ele>381.7</ele>
        <time>2024-01-23T11:45:20Z</time>
      </trkpt>
      <trkpt lat="48.69389" lon="7.17283">
        <ele>382.1</ele>
        <time>2024-01-23T11:45:28Z</time>
      </trkpt>
      <trkpt lat="48.69409" lon="7.17285">
        <ele>382.4</ele>
        <time>2024-01-23T11:45:39Z</time>
      </trkpt>
      <trkpt lat="48.69427" lon="7.17268">
        <ele>382.6</ele>
        <time>2024-01-23T11:45:50Z</time>
      </trkpt>
      <trkpt lat="48.6944" lon="7.17257">
        <ele>382.9</ele>
        <time>2024-01-23T11:45:58Z</time>
      </trkpt>
      <trkpt lat="48.69444" lon="7.17261">
        <ele>383</ele>
        <time>2024-01-23T11:46:00Z</time>
      </trkpt>
      <trkpt lat="48.69453" lon="7.17286">
        <ele>387.8</ele>
        <time>2024-01-23T11:46:07Z</time>
      </trkpt>
      <trkpt lat="48.69457" lon="7.17308">
        <ele>391.8</ele>
        <time>2024-01-23T11:46:15Z</time>
      </trkpt>
      <trkpt lat="48.69475" lon="7.17305">
        <ele>394.9</ele>
        <time>2024-01-23T11:46:22Z</time>
      </trkpt>
      <trkpt lat="48.69494" lon="7.17302">
        <ele>397.4</ele>
        <time>2024-01-23T11:46:30Z</time>
      </trkpt>
      <trkpt lat="48.69512" lon="7.17307">
        <ele>400.7</ele>
        <time>2024-01-23T11:46:38Z</time>
      </trkpt>
      <trkpt lat="48.69529" lon="7.17316">
        <ele>404.1</ele>
        <time>2024-01-23T11:46:45Z</time>
      </trkpt>
      <trkpt lat="48.69549" lon="7.17324">
        <ele>407</ele>
        <time>2024-01-23T11:46:52Z</time>
      </trkpt>
      <trkpt lat="48.69566" lon="7.17332">
        <ele>408.1</ele>
        <time>2024-01-23T11:46:58Z</time>
      </trkpt>
      <trkpt lat="48.69586" lon="7.17342">
        <ele>407.8</ele>
        <time>2024-01-23T11:47:05Z</time>
      </trkpt>
      <trkpt lat="48.69606" lon="7.17343">
        <ele>406.1</ele>
        <time>2024-01-23T11:47:13Z</time>
      </trkpt>
      <trkpt lat="48.69624" lon="7.17337">
        <ele>404.4</ele>
        <time>2024-01-23T11:47:20Z</time>
      </trkpt>
      <trkpt lat="48.6964" lon="7.17321">
        <ele>403</ele>
        <time>2024-01-23T11:47:28Z</time>
      </trkpt>
      <trkpt lat="48.69657" lon="7.17305">
        <ele>402.7</ele>
        <time>2024-01-23T11:47:36Z</time>
      </trkpt>
      <trkpt lat="48.69671" lon="7.17287">
        <ele>402.7</ele>
        <time>2024-01-23T11:47:45Z</time>
      </trkpt>
      <trkpt lat="48.69682" lon="7.17267">
        <ele>403</ele>
        <time>2024-01-23T11:47:58Z</time>
      </trkpt>
      <trkpt lat="48.69688" lon="7.1724">
        <ele>403.8</ele>
        <time>2024-01-23T11:48:06Z</time>
      </trkpt>
      <trkpt lat="48.69698" lon="7.17214">
        <ele>404.3</ele>
        <time>2024-01-23T11:48:13Z</time>
      </trkpt>
      <trkpt lat="48.69706" lon="7.17189">
        <ele>404.4</ele>
        <time>2024-01-23T11:48:19Z</time>
      </trkpt>
      <trkpt lat="48.6971" lon="7.17159">
        <ele>404</ele>
        <time>2024-01-23T11:48:26Z</time>
      </trkpt>
      <trkpt lat="48.69714" lon="7.17126">
        <ele>402.9</ele>
        <time>2024-01-23T11:48:32Z</time>
      </trkpt>
      <trkpt lat="48.6972" lon="7.171">
        <ele>401.8</ele>
        <time>2024-01-23T11:48:40Z</time>
      </trkpt>
      <trkpt lat="48.69724" lon="7.1707">
        <ele>400.7</ele>
        <time>2024-01-23T11:48:48Z</time>
      </trkpt>
      <trkpt lat="48.69728" lon="7.1704">
        <ele>399.7</ele>
        <time>2024-01-23T11:48:55Z</time>
      </trkpt>
      <trkpt lat="48.69729" lon="7.1701">
        <ele>398.8</ele>
        <time>2024-01-23T11:49:01Z</time>
      </trkpt>
      <trkpt lat="48.69726" lon="7.16981">
        <ele>397.6</ele>
        <time>2024-01-23T11:49:07Z</time>
      </trkpt>
      <trkpt lat="48.6972" lon="7.16953">
        <ele>396.5</ele>
        <time>2024-01-23T11:49:14Z</time>
      </trkpt>
      <trkpt lat="48.69712" lon="7.16926">
        <ele>395.4</ele>
        <time>2024-01-23T11:49:20Z</time>
      </trkpt>
      <trkpt lat="48.69715" lon="7.169">
        <ele>394.3</ele>
        <time>2024-01-23T11:49:25Z</time>
      </trkpt>
      <trkpt lat="48.69727" lon="7.16872">
        <ele>392.8</ele>
        <time>2024-01-23T11:49:31Z</time>
      </trkpt>
      <trkpt lat="48.69738" lon="7.16847">
        <ele>391.3</ele>
        <time>2024-01-23T11:49:36Z</time>
      </trkpt>
      <trkpt lat="48.69752" lon="7.16822">
        <ele>389.6</ele>
        <time>2024-01-23T11:49:42Z</time>
      </trkpt>
      <trkpt lat="48.69766" lon="7.16803">
        <ele>388.1</ele>
        <time>2024-01-23T11:49:48Z</time>
      </trkpt>
      <trkpt lat="48.69782" lon="7.16786">
        <ele>386.8</ele>
        <time>2024-01-23T11:49:54Z</time>
      </trkpt>
      <trkpt lat="48.69799" lon="7.16768">
        <ele>385.7</ele>
        <time>2024-01-23T11:50:00Z</time>
      </trkpt>
      <trkpt lat="48.69813" lon="7.16749">
        <ele>384.7</ele>
        <time>2024-01-23T11:50:06Z</time>
      </trkpt>
      <trkpt lat="48.6983" lon="7.16731">
        <ele>383</ele>
        <time>2024-01-23T11:50:13Z</time>
      </trkpt>
      <trkpt lat="48.69846" lon="7.1672">
        <ele>381.1</ele>
        <time>2024-01-23T11:50:20Z</time>
      </trkpt>
      <trkpt lat="48.69863" lon="7.16705">
        <ele>378.9</ele>
        <time>2024-01-23T11:50:27Z</time>
      </trkpt>
      <trkpt lat="48.69881" lon="7.16691">
        <ele>377.4</ele>
        <time>2024-01-23T11:50:34Z</time>
      </trkpt>
      <trkpt lat="48.69901" lon="7.16675">
        <ele>375.6</ele>
        <time>2024-01-23T11:50:40Z</time>
      </trkpt>
      <trkpt lat="48.69916" lon="7.16661">
        <ele>374</ele>
        <time>2024-01-23T11:50:44Z</time>
      </trkpt>
      <trkpt lat="48.69934" lon="7.16649">
        <ele>372.9</ele>
        <time>2024-01-23T11:50:48Z</time>
      </trkpt>
      <trkpt lat="48.6995" lon="7.16637">
        <ele>372</ele>
        <time>2024-01-23T11:50:52Z</time>
      </trkpt>
      <trkpt lat="48.69968" lon="7.16626">
        <ele>371</ele>
        <time>2024-01-23T11:50:58Z</time>
      </trkpt>
      <trkpt lat="48.69987" lon="7.16611">
        <ele>369.6</ele>
        <time>2024-01-23T11:51:06Z</time>
      </trkpt>
      <trkpt lat="48.70003" lon="7.16598">
        <ele>368.3</ele>
        <time>2024-01-23T11:51:12Z</time>
      </trkpt>
      <trkpt lat="48.70006" lon="7.16593">
        <ele>367.8</ele>
        <time>2024-01-23T11:51:13Z</time>
      </trkpt>
      <trkpt lat="48.70019" lon="7.1657">
        <ele>366.1</ele>
        <time>2024-01-23T11:51:21Z</time>
      </trkpt>
      <trkpt lat="48.70039" lon="7.16561">
        <ele>365</ele>
        <time>2024-01-23T11:51:27Z</time>
      </trkpt>
      <trkpt lat="48.70057" lon="7.16551">
        <ele>364.7</ele>
        <time>2024-01-23T11:51:33Z</time>
      </trkpt>
      <trkpt lat="48.70069" lon="7.1653">
        <ele>363.9</ele>
        <time>2024-01-23T11:51:39Z</time>
      </trkpt>
      <trkpt lat="48.70081" lon="7.16503">
        <ele>363.2</ele>
        <time>2024-01-23T11:51:45Z</time>
      </trkpt>
      <trkpt lat="48.70091" lon="7.16476">
        <ele>362.5</ele>
        <time>2024-01-23T11:51:51Z</time>
      </trkpt>
      <trkpt lat="48.701" lon="7.1645">
        <ele>361.9</ele>
        <time>2024-01-23T11:51:57Z</time>
      </trkpt>
      <trkpt lat="48.70109" lon="7.16422">
        <ele>361.1</ele>
        <time>2024-01-23T11:52:03Z</time>
      </trkpt>
      <trkpt lat="48.70116" lon="7.16395">
        <ele>360.5</ele>
        <time>2024-01-23T11:52:09Z</time>
      </trkpt>
      <trkpt lat="48.70122" lon="7.16368">
        <ele>359.6</ele>
        <time>2024-01-23T11:52:15Z</time>
      </trkpt>
      <trkpt lat="48.70127" lon="7.1634">
        <ele>359.1</ele>
        <time>2024-01-23T11:52:21Z</time>
      </trkpt>
      <trkpt lat="48.70131" lon="7.16313">
        <ele>358.7</ele>
        <time>2024-01-23T11:52:27Z</time>
      </trkpt>
      <trkpt lat="48.70138" lon="7.16287">
        <ele>358</ele>
        <time>2024-01-23T11:52:33Z</time>
      </trkpt>
      <trkpt lat="48.70146" lon="7.16261">
        <ele>357.3</ele>
        <time>2024-01-23T11:52:39Z</time>
      </trkpt>
      <trkpt lat="48.70155" lon="7.16235">
        <ele>356.6</ele>
        <time>2024-01-23T11:52:45Z</time>
      </trkpt>
      <trkpt lat="48.70164" lon="7.16209">
        <ele>355.7</ele>
        <time>2024-01-23T11:52:51Z</time>
      </trkpt>
      <trkpt lat="48.70173" lon="7.16182">
        <ele>355.1</ele>
        <time>2024-01-23T11:52:57Z</time>
      </trkpt>
      <trkpt lat="48.70183" lon="7.16156">
        <ele>354.5</ele>
        <time>2024-01-23T11:53:03Z</time>
      </trkpt>
      <trkpt lat="48.70195" lon="7.1613">
        <ele>354</ele>
        <time>2024-01-23T11:53:09Z</time>
      </trkpt>
      <trkpt lat="48.70206" lon="7.16103">
        <ele>353.5</ele>
        <time>2024-01-23T11:53:15Z</time>
      </trkpt>
      <trkpt lat="48.70218" lon="7.16079">
        <ele>353.2</ele>
        <time>2024-01-23T11:53:20Z</time>
      </trkpt>
      <trkpt lat="48.70231" lon="7.16053">
        <ele>353.1</ele>
        <time>2024-01-23T11:53:26Z</time>
      </trkpt>
      <trkpt lat="48.70249" lon="7.16041">
        <ele>351.8</ele>
        <time>2024-01-23T11:53:32Z</time>
      </trkpt>
      <trkpt lat="48.7027" lon="7.16036">
        <ele>350.6</ele>
        <time>2024-01-23T11:53:38Z</time>
      </trkpt>
      <trkpt lat="48.7029" lon="7.16033">
        <ele>349.5</ele>
        <time>2024-01-23T11:53:44Z</time>
      </trkpt>
      <trkpt lat="48.70309" lon="7.16031">
        <ele>348.3</ele>
        <time>2024-01-23T11:53:50Z</time>
      </trkpt>
      <trkpt lat="48.70329" lon="7.1603">
        <ele>347</ele>
        <time>2024-01-23T11:53:56Z</time>
      </trkpt>
      <trkpt lat="48.7035" lon="7.16031">
        <ele>345.7</ele>
        <time>2024-01-23T11:54:03Z</time>
      </trkpt>
      <trkpt lat="48.7037" lon="7.1603">
        <ele>344.3</ele>
        <time>2024-01-23T11:54:09Z</time>
      </trkpt>
      <trkpt lat="48.70388" lon="7.16033">
        <ele>343.1</ele>
        <time>2024-01-23T11:54:14Z</time>
      </trkpt>
      <trkpt lat="48.70409" lon="7.16038">
        <ele>341.9</ele>
        <time>2024-01-23T11:54:20Z</time>
      </trkpt>
      <trkpt lat="48.70428" lon="7.16043">
        <ele>340.8</ele>
        <time>2024-01-23T11:54:26Z</time>
      </trkpt>
      <trkpt lat="48.70447" lon="7.16051">
        <ele>340.1</ele>
        <time>2024-01-23T11:54:32Z</time>
      </trkpt>
      <trkpt lat="48.70465" lon="7.16059">
        <ele>339.6</ele>
        <time>2024-01-23T11:54:38Z</time>
      </trkpt>
      <trkpt lat="48.70484" lon="7.1607">
        <ele>339.1</ele>
        <time>2024-01-23T11:54:45Z</time>
      </trkpt>
      <trkpt lat="48.70504" lon="7.1608">
        <ele>338.9</ele>
        <time>2024-01-23T11:54:52Z</time>
      </trkpt>
      <trkpt lat="48.70522" lon="7.16089">
        <ele>338.9</ele>
        <time>2024-01-23T11:54:59Z</time>
      </trkpt>
      <trkpt lat="48.7054" lon="7.16094">
        <ele>338.8</ele>
        <time>2024-01-23T11:55:05Z</time>
      </trkpt>
      <trkpt lat="48.70559" lon="7.16094">
        <ele>338.4</ele>
        <time>2024-01-23T11:55:12Z</time>
      </trkpt>
      <trkpt lat="48.70578" lon="7.16097">
        <ele>337.8</ele>
        <time>2024-01-23T11:55:18Z</time>
      </trkpt>
      <trkpt lat="48.70599" lon="7.16097">
        <ele>336.9</ele>
        <time>2024-01-23T11:55:24Z</time>
      </trkpt>
      <trkpt lat="48.70617" lon="7.16093">
        <ele>336.1</ele>
        <time>2024-01-23T11:55:30Z</time>
      </trkpt>
      <trkpt lat="48.70635" lon="7.1609">
        <ele>335.1</ele>
        <time>2024-01-23T11:55:36Z</time>
      </trkpt>
      <trkpt lat="48.70657" lon="7.16089">
        <ele>334.1</ele>
        <time>2024-01-23T11:55:43Z</time>
      </trkpt>
      <trkpt lat="48.70676" lon="7.16091">
        <ele>333</ele>
        <time>2024-01-23T11:55:49Z</time>
      </trkpt>
      <trkpt lat="48.70694" lon="7.16095">
        <ele>332.1</ele>
        <time>2024-01-23T11:55:55Z</time>
      </trkpt>
      <trkpt lat="48.70714" lon="7.16096">
        <ele>331</ele>
        <time>2024-01-23T11:56:01Z</time>
      </trkpt>
      <trkpt lat="48.70735" lon="7.16097">
        <ele>330</ele>
        <time>2024-01-23T11:56:07Z</time>
      </trkpt>
      <trkpt lat="48.70754" lon="7.161">
        <ele>329</ele>
        <time>2024-01-23T11:56:13Z</time>
      </trkpt>
      <trkpt lat="48.70773" lon="7.16104">
        <ele>328.1</ele>
        <time>2024-01-23T11:56:19Z</time>
      </trkpt>
      <trkpt lat="48.70791" lon="7.16108">
        <ele>327.2</ele>
        <time>2024-01-23T11:56:25Z</time>
      </trkpt>
      <trkpt lat="48.70811" lon="7.16114">
        <ele>326.2</ele>
        <time>2024-01-23T11:56:32Z</time>
      </trkpt>
      <trkpt lat="48.7083" lon="7.16117">
        <ele>325.4</ele>
        <time>2024-01-23T11:56:38Z</time>
      </trkpt>
      <trkpt lat="48.70848" lon="7.16121">
        <ele>324.6</ele>
        <time>2024-01-23T11:56:44Z</time>
      </trkpt>
      <trkpt lat="48.70868" lon="7.16125">
        <ele>323.9</ele>
        <time>2024-01-23T11:56:50Z</time>
      </trkpt>
      <trkpt lat="48.70889" lon="7.1613">
        <ele>323.1</ele>
        <time>2024-01-23T11:56:57Z</time>
      </trkpt>
      <trkpt lat="48.70908" lon="7.16134">
        <ele>322.4</ele>
        <time>2024-01-23T11:57:03Z</time>
      </trkpt>
      <trkpt lat="48.70927" lon="7.16138">
        <ele>321.7</ele>
        <time>2024-01-23T11:57:09Z</time>
      </trkpt>
      <trkpt lat="48.70945" lon="7.16141">
        <ele>321.1</ele>
        <time>2024-01-23T11:57:15Z</time>
      </trkpt>
      <trkpt lat="48.70964" lon="7.1615">
        <ele>320.4</ele>
        <time>2024-01-23T11:57:21Z</time>
      </trkpt>
      <trkpt lat="48.70982" lon="7.16161">
        <ele>319.7</ele>
        <time>2024-01-23T11:57:27Z</time>
      </trkpt>
      <trkpt lat="48.71001" lon="7.16168">
        <ele>319.2</ele>
        <time>2024-01-23T11:57:33Z</time>
      </trkpt>
      <trkpt lat="48.71018" lon="7.16173">
        <ele>319</ele>
        <time>2024-01-23T11:57:39Z</time>
      </trkpt>
      <trkpt lat="48.71038" lon="7.16177">
        <ele>318.9</ele>
        <time>2024-01-23T11:57:45Z</time>
      </trkpt>
      <trkpt lat="48.71058" lon="7.16182">
        <ele>318.8</ele>
        <time>2024-01-23T11:57:51Z</time>
      </trkpt>
      <trkpt lat="48.71077" lon="7.16195">
        <ele>318.7</ele>
        <time>2024-01-23T11:57:57Z</time>
      </trkpt>
      <trkpt lat="48.71092" lon="7.16215">
        <ele>318.6</ele>
        <time>2024-01-23T11:58:03Z</time>
      </trkpt>
      <trkpt lat="48.71107" lon="7.16233">
        <ele>318.5</ele>
        <time>2024-01-23T11:58:08Z</time>
      </trkpt>
      <trkpt lat="48.71121" lon="7.16255">
        <ele>318.3</ele>
        <time>2024-01-23T11:58:14Z</time>
      </trkpt>
      <trkpt lat="48.71138" lon="7.16271">
        <ele>318</ele>
        <time>2024-01-23T11:58:20Z</time>
      </trkpt>
      <trkpt lat="48.71149" lon="7.16282">
        <ele>317.6</ele>
        <time>2024-01-23T11:58:25Z</time>
      </trkpt>
      <trkpt lat="48.71148" lon="7.16281">
        <ele>317.6</ele>
        <time>2024-01-23T11:58:26Z</time>
      </trkpt>
    </trkseg>
  </trk>
</gpx>